Quick Links (Output Below):   Max & Min Temps   /   Climate Reports   /   Zone Forecasts
River Forecasts   /   Forestry Forecasts   /   Aviation Forecasts   /   Radars   /   Features

Terminal Aerodrome Forecast (Texarkana)

Pick a Site:
Arkadelphia | El Dorado | Fayetteville | Fort Smith | Harrison | Highfill | Hot Springs | Jonesboro
Little Rock | Monticello | Mountain Home | Pine Bluff | Texarkana
 Forecast 

KTXK 301738Z 3018/3118 20008KT P6SM SCT060 SCT250
     FM310100 18005KT P6SM SCT150 SCT250
     FM311500 22005KT P6SM SCT250=


 Latest METARs (Observations) 
How to Decode METARs
22Z KTXK 302153Z 19007KT 10SM CLR 33/18 A2996 RMK AO2 SLP138
         T03330183
         
21Z KTXK 302053Z 18009KT 10SM FEW055 34/19 A2997 RMK AO2 SLP143
         T03390189 58017
         
20Z KTXK 301953Z 20007KT 10SM FEW055 33/19 A2999 RMK AO2 SLP149
         T03330189
         
19Z KTXK 301853Z 17011G19KT 10SM CLR 34/19 A3000 RMK AO2 SLP155
         T03390194
         
18Z KTXK 301753Z 20008KT 170V250 10SM CLR 33/18 A3002 RMK AO2 SLP160
         T03280183 10328 20228 58001
         
17Z KTXK 301653Z 21011KT 10SM BKN065 31/19 A3004 RMK AO2 SLP167
         T03110189
         
16Z KTXK 301553Z 21009KT 10SM CLR 30/19 A3004 RMK AO2 SLP166
         T03000194
         
15Z KTXK 301453Z 21008KT 10SM CLR 28/19 A3002 RMK AO2 SLP161 T02830194
         51008
         
14Z KTXK 301353Z 22007KT 10SM CLR 26/19 A3002 RMK AO2 SLP159
         T02610189
         
13Z KTXK 301253Z 19006KT 10SM CLR 24/19 A3001 RMK AO2 SLP156
         T02390189
         
***** Today's Observations (Above) *****


Back to Main Page
http://www.srh.noaa.gov/lzk/qfcst.php

USA.gov is the U.S. government's official web portal to all federal, state and local government web resources and services.